Time;durP1;ratioP1;P1;durP2;ratioP2;P2;SDS_P1;SDS_P2;PMS_P1;PMS_P2;Temp;Humidity;BMP_temperature;BMP_pressure;BME280_temperature;BME280_humidity;BME280_pressure;Samples;Min_cycle;Max_cycle;Signal;HPM_P1;HPM_P2
2022/02/28 00:00:15;;;;;;;7.57;4.17;;;-2.00;93.70;;;;;;2105790;28;20180;-70
2022/02/28 00:01:24;;;;;;;8.05;4.05;;;-2.00;93.60;;;;;;2104898;28;20287;-70
2022/02/28 00:02:27;;;;;;;8.20;4.55;;;-2.10;93.80;;;;;;2097743;28;20158;-70
2022/02/28 00:03:27;;;;;;;6.05;4.13;;;-2.10;93.80;;;;;;2092991;28;20181;-71
2022/02/28 00:04:28;;;;;;;6.60;4.03;;;-2.10;93.70;;;;;;2096587;28;20758;-69
2022/02/28 00:05:30;;;;;;;8.43;4.00;;;-2.10;93.90;;;;;;2096747;28;20405;-70
2022/02/28 00:06:31;;;;;;;7.07;4.07;;;-2.10;93.90;;;;;;2096616;28;20173;-70
2022/02/28 00:07:31;;;;;;;6.63;3.93;;;-2.10;94.00;;;;;;2088463;28;20208;-70
2022/02/28 00:08:33;;;;;;;6.57;3.87;;;-2.10;94.20;;;;;;2088411;28;20172;-70
2022/02/28 00:09:34;;;;;;;8.40;4.40;;;-2.20;94.20;;;;;;2096713;28;20646;-70
2022/02/28 00:10:34;;;;;;;9.33;4.17;;;-2.20;93.90;;;;;;2096564;28;20190;-70
2022/02/28 00:11:35;;;;;;;8.80;4.77;;;-2.20;94.40;;;;;;2096517;28;20262;-69
2022/02/28 00:12:36;;;;;;;8.93;4.67;;;-2.20;94.30;;;;;;2094763;28;20305;-69
2022/02/28 00:13:37;;;;;;;7.03;3.95;;;-2.20;94.10;;;;;;2088262;28;20216;-69
2022/02/28 00:14:38;;;;;;;9.87;4.57;;;-2.20;94.10;;;;;;2080267;28;20177;-69
2022/02/28 00:15:38;;;;;;;7.97;4.53;;;-2.20;94.10;;;;;;2087615;28;20646;-70
2022/02/28 00:16:39;;;;;;;7.20;3.93;;;-2.20;94.20;;;;;;2088399;28;20979;-70
2022/02/28 00:17:40;;;;;;;10.67;4.37;;;-2.20;94.30;;;;;;2088381;28;20200;-69
2022/02/28 00:18:41;;;;;;;8.77;4.63;;;-2.20;94.40;;;;;;2089191;28;20435;-69
2022/02/28 00:19:42;;;;;;;7.05;3.75;;;-2.20;94.60;;;;;;2088908;28;20186;-70
2022/02/28 00:20:42;;;;;;;6.80;4.03;;;-2.30;94.70;;;;;;2088346;28;20860;-69
2022/02/28 00:21:43;;;;;;;8.63;4.43;;;-2.30;94.70;;;;;;2079934;28;20212;-69
2022/02/28 00:22:45;;;;;;;6.37;3.97;;;-2.20;94.90;;;;;;2080109;28;20176;-69
2022/02/28 00:23:45;;;;;;;5.85;4.18;;;-2.30;94.70;;;;;;2080086;28;20262;-70
2022/02/28 00:24:46;;;;;;;6.17;3.73;;;-2.30;95.10;;;;;;2088359;28;20177;-70
2022/02/28 00:25:47;;;;;;;8.30;4.63;;;-2.30;95.20;;;;;;2088194;28;20663;-70
2022/02/28 00:26:47;;;;;;;6.90;3.93;;;-2.30;95.10;;;;;;2088232;28;20176;-70
2022/02/28 00:27:48;;;;;;;8.93;4.67;;;-2.30;95.30;;;;;;2079970;28;20184;-70
2022/02/28 00:28:49;;;;;;;7.27;4.63;;;-2.30;95.40;;;;;;2088299;28;20181;-70
2022/02/28 00:29:50;;;;;;;9.00;4.23;;;-2.30;95.40;;;;;;2096524;28;20171;-70
2022/02/28 00:30:51;;;;;;;8.87;3.70;;;-2.40;95.40;;;;;;2088973;28;20237;-70
2022/02/28 00:31:51;;;;;;;6.37;3.63;;;-2.30;95.60;;;;;;2088288;28;20190;-70
2022/02/28 00:32:52;;;;;;;8.13;4.47;;;-2.30;95.50;;;;;;2088432;28;20764;-70
2022/02/28 00:33:52;;;;;;;6.53;4.37;;;-2.30;95.50;;;;;;2088969;28;20180;-69
2022/02/28 00:34:54;;;;;;;7.73;4.07;;;-2.30;95.60;;;;;;2088855;28;20191;-69
2022/02/28 00:35:54;;;;;;;6.88;4.25;;;-2.30;95.60;;;;;;2087598;28;20187;-70
2022/02/28 00:36:56;;;;;;;5.77;4.00;;;-2.30;95.40;;;;;;2088346;28;20298;-70
2022/02/28 00:37:57;;;;;;;7.07;4.03;;;-2.40;95.40;;;;;;2088663;28;20271;-70
2022/02/28 00:38:58;;;;;;;6.85;3.80;;;-2.40;95.70;;;;;;2089387;28;20190;-70
2022/02/28 00:39:59;;;;;;;7.87;4.50;;;-2.40;95.60;;;;;;2089993;28;20182;-70
2022/02/28 00:41:00;;;;;;;6.93;5.15;;;-2.40;95.60;;;;;;2081689;28;20218;-70
2022/02/28 00:42:01;;;;;;;8.93;4.13;;;-2.40;95.60;;;;;;2090002;28;20178;-69
2022/02/28 00:43:01;;;;;;;10.77;4.43;;;-2.40;96.00;;;;;;2090458;28;20185;-70
2022/02/28 00:44:02;;;;;;;9.83;4.60;;;-2.40;95.70;;;;;;2089779;28;20186;-70
2022/02/28 00:45:04;;;;;;;7.93;4.87;;;-2.40;95.70;;;;;;2081485;28;20187;-70
2022/02/28 00:46:05;;;;;;;8.30;4.55;;;-2.40;96.00;;;;;;2089464;28;20644;-70
2022/02/28 00:47:06;;;;;;;6.78;3.85;;;-2.40;96.10;;;;;;2090482;28;20207;-69
2022/02/28 00:48:07;;;;;;;7.95;4.18;;;-2.40;96.20;;;;;;2090521;28;20207;-70
2022/02/28 00:49:08;;;;;;;9.00;4.80;;;-2.40;96.00;;;;;;2090382;28;20310;-70
2022/02/28 00:50:11;;;;;;;9.10;4.80;;;-2.50;95.90;;;;;;2090014;28;20177;-70
2022/02/28 00:51:12;;;;;;;8.13;4.70;;;-2.50;96.20;;;;;;2081959;28;20274;-70
2022/02/28 00:52:12;;;;;;;8.30;5.07;;;-2.60;96.10;;;;;;2081652;28;20563;-69
2022/02/28 00:53:13;;;;;;;8.00;4.30;;;-2.60;96.20;;;;;;2089740;28;20174;-70
2022/02/28 00:54:14;;;;;;;9.80;4.50;;;-2.50;96.40;;;;;;2089976;28;20191;-69
2022/02/28 00:55:15;;;;;;;7.20;4.40;;;-2.50;96.50;;;;;;2089147;28;20605;-70
2022/02/28 00:56:16;;;;;;;6.83;3.80;;;-2.60;96.60;;;;;;2090526;28;20662;-70
2022/02/28 00:57:16;;;;;;;7.30;3.67;;;-2.60;96.60;;;;;;2090314;28;20224;-69
2022/02/28 00:58:17;;;;;;;8.10;4.10;;;-2.60;96.60;;;;;;2090542;28;20165;-69
2022/02/28 00:59:17;;;;;;;7.57;4.20;;;-2.60;96.80;;;;;;2090357;28;20687;-69
2022/02/28 01:00:21;;;;;;;8.73;4.40;;;-2.60;96.60;;;;;;2089836;28;20615;-70
2022/02/28 01:01:22;;;;;;;8.00;4.72;;;-2.60;96.40;;;;;;2081831;28;20205;-70
2022/02/28 01:02:23;;;;;;;8.87;4.73;;;-2.70;96.30;;;;;;2081531;28;20193;-70
2022/02/28 01:03:25;;;;;;;7.87;4.07;;;-2.70;96.40;;;;;;2089747;28;20174;-69
2022/02/28 01:04:26;;;;;;;8.70;4.97;;;-2.80;96.60;;;;;;2097822;28;20241;-70
2022/02/28 01:05:27;;;;;;;8.40;5.10;;;-2.80;96.90;;;;;;2089670;28;20184;-70
2022/02/28 01:06:28;;;;;;;8.45;4.95;;;-2.70;97.00;;;;;;2089720;28;20881;-70
2022/02/28 01:07:28;;;;;;;7.03;4.50;;;-2.70;96.80;;;;;;2081213;28;20197;-69
2022/02/28 01:08:29;;;;;;;8.60;4.53;;;-2.70;96.70;;;;;;2081321;28;20901;-69
2022/02/28 01:09:29;;;;;;;8.87;5.00;;;-2.70;96.70;;;;;;2089510;28;20716;-69
2022/02/28 01:10:30;;;;;;;7.53;4.20;;;-2.70;96.50;;;;;;2089544;28;20177;-69
2022/02/28 01:11:32;;;;;;;7.57;4.63;;;-2.70;96.60;;;;;;2089336;28;20178;-70
2022/02/28 01:12:33;;;;;;;7.90;4.60;;;-2.70;96.70;;;;;;2089507;28;20181;-69
2022/02/28 01:13:33;;;;;;;8.83;4.53;;;-2.80;96.90;;;;;;2081188;28;20197;-70
2022/02/28 01:14:36;;;;;;;9.37;5.30;;;-2.80;97.20;;;;;;2081294;28;20743;-70
2022/02/28 01:15:40;;;;;;;10.32;4.60;;;-2.70;97.00;;;;;;2080734;28;20209;-69
2022/02/28 01:16:41;;;;;;;13.27;5.53;;;-2.70;96.90;;;;;;2081611;28;20231;-70
2022/02/28 01:17:42;;;;;;;8.33;4.30;;;-2.80;97.00;;;;;;2089381;28;20286;-70
2022/02/28 01:18:43;;;;;;;11.35;4.85;;;-2.80;97.00;;;;;;2089504;28;20184;-69
2022/02/28 01:19:44;;;;;;;7.80;4.57;;;-2.80;97.20;;;;;;2081239;28;20222;-70
2022/02/28 01:20:45;;;;;;;8.53;4.93;;;-2.80;97.20;;;;;;2089445;28;20215;-69
2022/02/28 01:21:46;;;;;;;9.17;4.43;;;-2.80;96.90;;;;;;2089907;28;20660;-70
2022/02/28 01:22:46;;;;;;;8.73;4.30;;;-2.90;96.90;;;;;;2090103;28;20181;-70
2022/02/28 01:23:47;;;;;;;7.07;4.57;;;-2.90;97.20;;;;;;2089454;28;20646;-69
2022/02/28 01:24:47;;;;;;;10.60;5.33;;;-2.90;97.30;;;;;;2089395;28;20178;-70
2022/02/28 01:25:48;;;;;;;8.03;4.40;;;-2.90;97.10;;;;;;2089523;28;20173;-69
2022/02/28 01:26:49;;;;;;;8.27;4.37;;;-3.00;97.30;;;;;;2089815;28;20203;-70
2022/02/28 01:27:50;;;;;;;8.93;5.00;;;-3.10;97.60;;;;;;2090172;28;20182;-70
2022/02/28 01:28:50;;;;;;;10.63;5.10;;;-3.10;98.20;;;;;;2089908;28;20725;-69
2022/02/28 01:29:51;;;;;;;9.80;4.63;;;-3.00;98.40;;;;;;2090038;28;20187;-69
2022/02/28 01:30:52;;;;;;;8.83;5.17;;;-3.00;98.10;;;;;;2097385;28;20181;-70
2022/02/28 01:31:52;;;;;;;8.00;4.37;;;-3.00;98.10;;;;;;2097655;28;20420;-69
2022/02/28 01:32:53;;;;;;;11.67;4.87;;;-3.00;98.10;;;;;;2089188;28;20181;-69
2022/02/28 01:33:54;;;;;;;10.03;4.73;;;-3.00;98.10;;;;;;2089347;28;20179;-69
2022/02/28 01:34:54;;;;;;;8.67;5.23;;;-3.00;97.90;;;;;;2089189;28;20564;-70
2022/02/28 01:35:55;;;;;;;10.30;4.63;;;-3.10;97.90;;;;;;2088787;28;20722;-70
2022/02/28 01:36:56;;;;;;;12.03;4.73;;;-3.10;98.10;;;;;;2089263;28;20634;-69
2022/02/28 01:37:58;;;;;;;11.37;4.90;;;-3.10;98.20;;;;;;2089623;28;20713;-70
2022/02/28 01:39:00;;;;;;;10.80;5.55;;;-3.10;98.40;;;;;;2089701;28;20260;-69
2022/02/28 01:40:02;;;;;;;11.68;5.80;;;-3.00;98.40;;;;;;2089987;28;20643;-70
2022/02/28 01:41:03;;;;;;;11.48;4.25;;;-3.10;98.20;;;;;;2089668;28;20178;-70
2022/02/28 01:42:03;;;;;;;10.37;5.40;;;-3.10;98.30;;;;;;2089252;28;20192;-70
2022/02/28 01:43:05;;;;;;;11.90;4.90;;;-3.10;98.60;;;;;;2089144;28;20207;-69
2022/02/28 01:44:07;;;;;;;8.82;4.68;;;-3.00;98.40;;;;;;2089263;28;20256;-70
2022/02/28 01:45:16;;;;;;;8.82;5.45;;;-3.00;98.10;;;;;;2080946;28;20228;-69
2022/02/28 01:46:16;;;;;;;10.15;5.28;;;-3.10;98.10;;;;;;2090230;28;20169;-70
2022/02/28 01:47:17;;;;;;;12.20;4.47;;;-3.10;98.10;;;;;;2097401;28;20245;-70
2022/02/28 01:48:17;;;;;;;10.93;4.57;;;-3.10;98.30;;;;;;2089872;28;20169;-70
2022/02/28 01:49:18;;;;;;;8.00;4.57;;;-3.10;98.90;;;;;;2088730;28;20590;-69
2022/02/28 01:50:20;;;;;;;9.03;5.10;;;-3.20;99.00;;;;;;2080996;28;20201;-69
2022/02/28 01:51:21;;;;;;;8.93;4.60;;;-3.10;99.10;;;;;;2089128;28;20181;-70
2022/02/28 01:52:24;;;;;;;10.48;5.65;;;-3.10;99.00;;;;;;2089156;28;20184;-69
2022/02/28 01:53:25;;;;;;;10.02;5.10;;;-3.10;98.90;;;;;;2084148;28;20216;-70
2022/02/28 01:54:26;;;;;;;8.87;5.33;;;-3.10;98.70;;;;;;2097425;28;20185;-70
2022/02/28 01:55:27;;;;;;;9.00;4.57;;;-3.10;98.70;;;;;;2097332;28;20861;-70
2022/02/28 01:56:28;;;;;;;10.60;5.03;;;-3.10;98.70;;;;;;2098062;28;20176;-69
2022/02/28 01:57:28;;;;;;;10.27;5.47;;;-3.20;98.60;;;;;;2097890;28;20199;-69
2022/02/28 01:58:38;;;;;;;11.33;4.70;;;-3.20;98.90;;;;;;2098114;28;20180;-70
2022/02/28 01:59:39;;;;;;;7.25;4.28;;;-3.30;98.60;;;;;;2097969;28;20173;-69
2022/02/28 02:00:39;;;;;;;9.57;5.25;;;-3.30;98.60;;;;;;2097968;28;20235;-69
2022/02/28 02:01:40;;;;;;;10.30;4.97;;;-3.40;98.80;;;;;;2097844;28;20230;-70
2022/02/28 02:02:42;;;;;;;9.10;5.63;;;-3.50;99.00;;;;;;2097368;28;20181;-69
2022/02/28 02:03:42;;;;;;;9.93;4.40;;;-3.60;99.30;;;;;;2086308;28;20270;-69
2022/02/28 02:04:43;;;;;;;13.70;5.57;;;-3.60;99.60;;;;;;2088952;28;20187;-70
2022/02/28 02:05:45;;;;;;;9.13;4.63;;;-3.60;99.80;;;;;;2088353;28;20177;-70
2022/02/28 02:06:47;;;;;;;10.82;5.03;;;-3.60;99.90;;;;;;2088936;28;20728;-69
2022/02/28 02:07:48;;;;;;;8.75;4.40;;;-3.60;99.90;;;;;;2088916;28;20219;-69
2022/02/28 02:08:49;;;;;;;10.65;5.97;;;-3.50;99.90;;;;;;2089091;28;20188;-70
2022/02/28 02:09:50;;;;;;;9.63;4.47;;;-3.50;99.90;;;;;;2088793;28;20195;-69
2022/02/28 02:10:51;;;;;;;8.37;4.33;;;-3.50;99.90;;;;;;2080803;28;20183;-70
2022/02/28 02:11:51;;;;;;;8.73;5.03;;;-3.50;99.90;;;;;;2080697;28;20184;-70
2022/02/28 02:12:53;;;;;;;10.43;4.43;;;-3.50;99.90;;;;;;2080817;28;20177;-70
2022/02/28 02:13:54;;;;;;;9.10;4.57;;;-3.50;99.90;;;;;;2088939;28;20642;-69
2022/02/28 02:14:55;;;;;;;9.38;4.93;;;-3.50;99.90;;;;;;2088901;28;20189;-69
2022/02/28 02:15:57;;;;;;;9.02;4.30;;;-3.40;99.90;;;;;;2088349;28;20597;-69
2022/02/28 02:16:59;;;;;;;8.98;4.80;;;-3.50;99.90;;;;;;2089473;28;20180;-70
2022/02/28 02:18:04;;;;;;;8.45;3.88;;;-3.50;99.90;;;;;;2089016;28;20311;-70
2022/02/28 02:19:04;;;;;;;10.50;4.32;;;-3.40;99.90;;;;;;2088922;28;20189;-70
2022/02/28 02:20:29;;;;;;;8.93;4.50;;;-3.40;99.90;;;;;;2089527;28;20567;-70
2022/02/28 02:21:30;;;;;;;5.55;3.85;;;-3.40;99.90;;;;;;2089405;28;20216;-69
2022/02/28 02:22:31;;;;;;;7.95;4.22;;;-3.40;99.90;;;;;;2089528;28;20184;-70
2022/02/28 02:23:32;;;;;;;7.07;4.20;;;-3.40;99.90;;;;;;2089584;28;20643;-70
2022/02/28 02:24:34;;;;;;;7.65;3.92;;;-3.40;99.60;;;;;;2088807;28;20218;-70
2022/02/28 02:25:36;;;;;;;9.77;5.10;;;-3.40;99.30;;;;;;2088299;28;20184;-69
2022/02/28 02:26:36;;;;;;;9.43;4.05;;;-3.40;99.60;;;;;;2097036;28;20183;-69
2022/02/28 02:27:37;;;;;;;8.50;4.37;;;-3.40;99.40;;;;;;2097165;28;20613;-69
2022/02/28 02:28:38;;;;;;;9.73;4.30;;;-3.50;99.50;;;;;;2089440;28;20180;-69
2022/02/28 02:29:39;;;;;;;10.33;4.60;;;-3.50;99.80;;;;;;2089083;28;20188;-70
2022/02/28 02:30:41;;;;;;;8.40;4.63;;;-3.50;99.90;;;;;;2080623;28;20822;-70
2022/02/28 02:31:41;;;;;;;6.78;4.03;;;-3.50;99.90;;;;;;2080739;28;20234;-70
2022/02/28 02:32:42;;;;;;;7.83;4.40;;;-3.50;99.90;;;;;;2088951;28;20234;-69
2022/02/28 02:33:43;;;;;;;8.13;4.60;;;-3.60;99.90;;;;;;2089542;28;20673;-70
2022/02/28 02:34:45;;;;;;;7.63;4.40;;;-3.60;99.90;;;;;;2088741;28;20184;-69
2022/02/28 02:36:00;;;;;;;9.18;5.03;;;-3.70;99.90;;;;;;2088328;28;20190;-70
2022/02/28 02:37:00;;;;;;;8.15;4.90;;;-3.70;99.90;;;;;;2089009;28;20179;-69
2022/02/28 02:38:01;;;;;;;8.50;4.17;;;-3.70;99.90;;;;;;2089624;28;20227;-69
2022/02/28 02:39:02;;;;;;;9.83;4.50;;;-3.70;99.90;;;;;;2097108;28;20242;-70
2022/02/28 02:40:04;;;;;;;9.87;4.20;;;-3.60;99.90;;;;;;2097145;28;20183;-69
2022/02/28 02:41:09;;;;;;;7.70;4.45;;;-3.70;99.90;;;;;;2096736;28;20224;-69
2022/02/28 02:42:11;;;;;;;7.22;4.15;;;-3.70;99.90;;;;;;2088909;28;20674;-70
2022/02/28 02:43:11;;;;;;;9.48;5.75;;;-3.70;99.90;;;;;;2081195;28;20220;-69
2022/02/28 02:44:12;;;;;;;8.03;4.43;;;-3.70;99.90;;;;;;2088837;28;20694;-70
2022/02/28 02:45:13;;;;;;;11.43;6.00;;;-3.80;99.90;;;;;;2096531;28;20168;-70
2022/02/28 02:46:14;;;;;;;7.88;3.92;;;-3.90;99.90;;;;;;2089513;28;20662;-70
2022/02/28 02:47:15;;;;;;;6.75;4.80;;;-3.90;99.90;;;;;;2089428;28;20201;-69
2022/02/28 02:48:22;;;;;;;10.40;4.20;;;-3.90;99.90;;;;;;2089571;28;20176;-69
2022/02/28 02:49:23;;;;;;;6.35;4.03;;;-3.80;99.90;;;;;;2088807;28;20272;-68
2022/02/28 02:50:23;;;;;;;8.10;4.57;;;-3.80;99.90;;;;;;2088866;28;20557;-69
2022/02/28 02:51:24;;;;;;;9.17;4.90;;;-3.80;99.90;;;;;;2088781;28;20184;-69
2022/02/28 02:52:25;;;;;;;7.70;4.93;;;-3.90;99.90;;;;;;2088709;28;20176;-69
2022/02/28 02:53:25;;;;;;;8.90;5.57;;;-3.90;99.90;;;;;;2088785;28;20211;-69
2022/02/28 02:54:26;;;;;;;9.37;4.53;;;-3.90;99.90;;;;;;2080429;28;20181;-69
2022/02/28 02:55:27;;;;;;;8.40;4.67;;;-3.90;99.90;;;;;;2088203;28;20176;-68
2022/02/28 02:56:27;;;;;;;8.73;3.97;;;-3.90;99.90;;;;;;2089316;28;20741;-69
2022/02/28 02:57:28;;;;;;;9.10;5.13;;;-4.00;99.90;;;;;;2088728;28;20442;-69
2022/02/28 02:58:29;;;;;;;8.30;4.00;;;-4.10;99.90;;;;;;2088809;28;20180;-69
2022/02/28 02:59:29;;;;;;;7.37;4.53;;;-4.10;99.90;;;;;;2089570;28;20226;-69
2022/02/28 03:00:30;;;;;;;6.90;4.20;;;-4.10;99.90;;;;;;2089285;28;20177;-69
2022/02/28 03:01:31;;;;;;;9.65;4.65;;;-4.10;99.90;;;;;;2087865;28;20299;-69
2022/02/28 03:02:32;;;;;;;6.93;4.70;;;-4.10;99.90;;;;;;2088638;28;20188;-69
2022/02/28 03:03:33;;;;;;;7.70;3.63;;;-4.10;99.90;;;;;;2088865;28;20698;-69
2022/02/28 03:04:34;;;;;;;7.90;4.20;;;-4.10;99.90;;;;;;2080633;28;20189;-69
2022/02/28 03:05:34;;;;;;;7.10;3.77;;;-4.00;99.90;;;;;;2088230;28;20180;-69
2022/02/28 03:06:35;;;;;;;8.03;4.70;;;-4.10;99.90;;;;;;2088764;28;20674;-69
2022/02/28 03:07:36;;;;;;;9.30;4.67;;;-4.00;99.90;;;;;;2088792;28;20778;-69
2022/02/28 03:08:36;;;;;;;8.40;4.67;;;-4.00;99.90;;;;;;2088511;28;20176;-69
2022/02/28 03:09:37;;;;;;;7.80;4.33;;;-4.10;99.90;;;;;;2072290;28;20196;-69
2022/02/28 03:10:38;;;;;;;6.80;4.03;;;-4.10;99.90;;;;;;2080482;28;20181;-69
2022/02/28 03:11:41;;;;;;;7.57;4.23;;;-4.20;99.90;;;;;;2088811;28;20193;-69
2022/02/28 03:12:42;;;;;;;9.40;5.75;;;-4.20;99.90;;;;;;2080649;28;20185;-69
2022/02/28 03:13:43;;;;;;;9.30;5.75;;;-4.30;99.90;;;;;;2080423;28;20193;-70
2022/02/28 03:14:44;;;;;;;11.67;4.83;;;-4.30;99.90;;;;;;2080544;28;20188;-69
2022/02/28 03:15:45;;;;;;;9.43;4.97;;;-4.30;99.90;;;;;;2088166;28;20184;-70
2022/02/28 03:16:46;;;;;;;8.52;4.80;;;-4.20;99.90;;;;;;2088490;28;20591;-70
2022/02/28 03:17:47;;;;;;;8.03;4.50;;;-4.20;99.90;;;;;;2080765;28;20178;-70
2022/02/28 03:18:48;;;;;;;8.67;4.97;;;-4.20;99.90;;;;;;2080193;28;20191;-69
2022/02/28 03:19:49;;;;;;;8.35;4.40;;;-4.20;99.90;;;;;;2088700;28;20830;-69
2022/02/28 03:20:49;;;;;;;10.87;5.23;;;-4.20;99.90;;;;;;2088611;28;20180;-69
2022/02/28 03:21:50;;;;;;;12.00;5.03;;;-4.10;99.90;;;;;;2088705;28;20296;-70
2022/02/28 03:22:51;;;;;;;7.47;4.73;;;-4.20;99.90;;;;;;2089294;28;20183;-70
2022/02/28 03:23:52;;;;;;;9.13;5.37;;;-4.20;99.90;;;;;;2088718;28;20639;-71
2022/02/28 03:24:52;;;;;;;9.93;4.67;;;-4.20;99.90;;;;;;2080293;28;20173;-70
2022/02/28 03:25:58;;;;;;;12.60;5.13;;;-4.20;99.90;;;;;;2088185;28;20183;-69
2022/02/28 03:26:59;;;;;;;10.13;4.72;;;-4.20;99.90;;;;;;2089212;28;20642;-70
2022/02/28 03:28:00;;;;;;;11.67;5.03;;;-4.20;99.90;;;;;;2088894;28;20181;-69
2022/02/28 03:29:00;;;;;;;8.97;5.07;;;-4.20;99.90;;;;;;2088557;28;20169;-69
2022/02/28 03:30:01;;;;;;;8.83;5.37;;;-4.20;99.90;;;;;;2089221;28;20176;-69
2022/02/28 03:31:02;;;;;;;9.67;5.43;;;-4.20;99.90;;;;;;2088557;28;20686;-69
2022/02/28 03:32:03;;;;;;;10.57;5.70;;;-4.20;99.90;;;;;;2088621;28;20177;-69
2022/02/28 03:33:04;;;;;;;7.90;4.57;;;-4.30;99.90;;;;;;2088423;28;20184;-70
2022/02/28 03:34:04;;;;;;;9.93;4.10;;;-4.30;99.90;;;;;;2088622;28;20188;-70
2022/02/28 03:35:08;;;;;;;9.30;4.13;;;-4.30;99.90;;;;;;2089028;28;20679;-68
2022/02/28 03:36:09;;;;;;;7.03;4.07;;;-4.30;99.90;;;;;;2088981;28;20172;-70
2022/02/28 03:37:09;;;;;;;6.73;4.47;;;-4.40;99.90;;;;;;2088845;28;20200;-70
2022/02/28 03:38:10;;;;;;;9.13;4.07;;;-4.40;99.90;;;;;;2088563;28;20181;-68
2022/02/28 03:39:11;;;;;;;11.93;3.87;;;-4.40;99.90;;;;;;2088481;28;20393;-70
2022/02/28 03:40:12;;;;;;;8.33;4.10;;;-4.40;99.90;;;;;;2088917;28;20219;-70
2022/02/28 03:41:13;;;;;;;8.10;4.20;;;-4.40;99.90;;;;;;2088388;28;20318;-70
2022/02/28 03:42:14;;;;;;;9.43;4.50;;;-4.40;99.90;;;;;;2080252;28;20223;-70
2022/02/28 03:43:15;;;;;;;6.40;4.05;;;-4.50;99.90;;;;;;2080479;28;20721;-69
2022/02/28 03:44:16;;;;;;;9.37;3.90;;;-4.50;99.90;;;;;;2088386;28;20176;-70
2022/02/28 03:45:18;;;;;;;9.83;4.57;;;-4.50;99.90;;;;;;2088454;28;20692;-70
2022/02/28 03:46:19;;;;;;;7.70;3.78;;;-4.40;99.90;;;;;;2088998;28;20200;-69
2022/02/28 03:47:19;;;;;;;7.40;4.40;;;-4.40;99.90;;;;;;2089109;28;20576;-69
2022/02/28 03:48:20;;;;;;;6.85;3.72;;;-4.50;99.90;;;;;;2092432;28;20176;-69
2022/02/28 03:49:21;;;;;;;6.53;3.63;;;-4.50;99.90;;;;;;2088545;28;20199;-70
2022/02/28 03:50:24;;;;;;;7.73;4.33;;;-4.50;99.90;;;;;;2089002;28;20172;-70
2022/02/28 03:51:25;;;;;;;8.20;4.00;;;-4.60;99.90;;;;;;2089001;28;20188;-70
2022/02/28 03:52:25;;;;;;;6.47;3.50;;;-4.70;99.90;;;;;;2088957;28;20176;-69
2022/02/28 03:53:26;;;;;;;6.83;4.13;;;-4.70;99.90;;;;;;2089107;28;20179;-69
2022/02/28 03:54:27;;;;;;;8.27;4.13;;;-4.70;99.90;;;;;;2088267;28;20180;-70
2022/02/28 03:55:28;;;;;;;9.10;4.50;;;-4.70;99.90;;;;;;2088013;28;20196;-70
2022/02/28 03:56:28;;;;;;;6.57;3.27;;;-4.70;99.90;;;;;;2089038;28;20648;-69
2022/02/28 03:57:29;;;;;;;7.60;3.77;;;-4.60;99.90;;;;;;2089052;28;20200;-69
2022/02/28 03:58:30;;;;;;;7.93;3.90;;;-4.60;99.90;;;;;;2088474;28;20180;-69
2022/02/28 03:59:31;;;;;;;7.57;3.85;;;-4.60;99.90;;;;;;2088464;28;20195;-69
2022/02/28 04:00:32;;;;;;;8.77;3.70;;;-4.60;99.90;;;;;;2096375;28;20184;-70
2022/02/28 04:01:32;;;;;;;6.63;3.63;;;-4.60;99.90;;;;;;2097213;28;20207;-69
2022/02/28 04:02:33;;;;;;;7.53;4.10;;;-4.60;99.90;;;;;;2097274;28;20190;-69
2022/02/28 04:03:34;;;;;;;7.57;4.20;;;-4.60;99.90;;;;;;2096638;28;20171;-69
2022/02/28 04:04:35;;;;;;;7.82;4.38;;;-4.60;99.90;;;;;;2096428;28;20213;-69
2022/02/28 04:05:35;;;;;;;8.53;4.27;;;-4.60;99.90;;;;;;2096224;28;20706;-69
2022/02/28 04:06:36;;;;;;;10.00;4.50;;;-4.60;99.90;;;;;;2096511;28;20218;-69
2022/02/28 04:07:37;;;;;;;8.13;3.95;;;-4.60;99.90;;;;;;2097505;28;20230;-69
2022/02/28 04:08:38;;;;;;;10.60;5.07;;;-4.60;99.90;;;;;;2097068;28;20274;-70
2022/02/28 04:09:39;;;;;;;7.95;4.00;;;-4.60;99.90;;;;;;2096744;28;20214;-70
2022/02/28 04:10:40;;;;;;;7.75;4.25;;;-4.60;99.90;;;;;;2088350;28;20286;-70
2022/02/28 04:11:41;;;;;;;9.13;4.27;;;-4.60;99.90;;;;;;2096812;28;20187;-69
2022/02/28 04:12:43;;;;;;;7.07;3.92;;;-4.60;99.90;;;;;;2098798;28;20176;-70
2022/02/28 04:13:43;;;;;;;6.88;4.13;;;-4.60;99.90;;;;;;2099403;28;20648;-70
2022/02/28 04:14:46;;;;;;;10.40;5.47;;;-4.60;99.90;;;;;;2099314;28;20179;-69
2022/02/28 04:15:47;;;;;;;9.95;4.82;;;-4.60;99.90;;;;;;2090742;28;20184;-69
2022/02/28 04:16:47;;;;;;;9.47;5.20;;;-4.70;99.90;;;;;;2091152;28;20233;-69
2022/02/28 04:17:48;;;;;;;9.80;4.33;;;-4.70;99.90;;;;;;2099540;28;20236;-69
2022/02/28 04:18:48;;;;;;;9.03;4.70;;;-4.70;99.90;;;;;;2099416;28;20214;-68
2022/02/28 04:19:49;;;;;;;8.30;4.20;;;-4.70;99.90;;;;;;2091151;28;20264;-69
2022/02/28 04:20:50;;;;;;;10.77;4.77;;;-4.70;99.90;;;;;;2099417;28;20179;-69
2022/02/28 04:21:51;;;;;;;6.87;4.13;;;-4.70;99.90;;;;;;2090827;28;20211;-69
2022/02/28 04:22:51;;;;;;;8.40;4.70;;;-4.70;99.90;;;;;;2091035;28;20195;-70
2022/02/28 04:23:52;;;;;;;8.50;3.97;;;-4.70;99.90;;;;;;2107584;28;20220;-69
2022/02/28 04:24:53;;;;;;;7.13;4.33;;;-4.70;99.90;;;;;;2107719;28;20171;-70
2022/02/28 04:25:53;;;;;;;7.70;4.20;;;-4.70;99.90;;;;;;2098806;28;20172;-70
2022/02/28 04:26:54;;;;;;;7.87;4.23;;;-4.70;99.90;;;;;;2099311;28;20179;-69
2022/02/28 04:27:55;;;;;;;9.47;4.80;;;-4.70;99.90;;;;;;2099336;28;20174;-69
2022/02/28 04:28:55;;;;;;;7.23;4.23;;;-4.70;99.90;;;;;;2099282;28;20213;-69
2022/02/28 04:29:56;;;;;;;8.00;4.13;;;-4.70;99.90;;;;;;2099752;28;20185;-69
2022/02/28 04:30:56;;;;;;;8.33;4.00;;;-4.70;99.90;;;;;;2099851;28;20179;-69
2022/02/28 04:32:00;;;;;;;9.40;4.30;;;-4.70;99.90;;;;;;2099906;28;20179;-69
2022/02/28 04:33:01;;;;;;;9.68;4.97;;;-4.70;99.90;;;;;;2099982;28;20179;-70
2022/02/28 04:34:01;;;;;;;8.47;4.27;;;-4.70;99.90;;;;;;2099775;28;20676;-70
2022/02/28 04:35:03;;;;;;;10.13;4.37;;;-4.70;99.90;;;;;;2099289;28;20176;-70
2022/02/28 04:36:03;;;;;;;8.38;4.85;;;-4.70;99.90;;;;;;2090418;28;20184;-69
2022/02/28 04:37:04;;;;;;;11.40;5.20;;;-4.70;99.90;;;;;;2099393;28;20807;-70
2022/02/28 04:38:05;;;;;;;9.30;4.23;;;-4.70;99.90;;;;;;2099905;28;20432;-70
2022/02/28 04:39:06;;;;;;;6.13;3.67;;;-4.70;99.90;;;;;;2099925;28;20601;-69
2022/02/28 04:40:08;;;;;;;7.63;4.63;;;-4.70;99.90;;;;;;2099980;28;20187;-69
2022/02/28 04:41:08;;;;;;;7.38;3.65;;;-4.90;99.90;;;;;;2099996;28;20241;-69
2022/02/28 04:42:09;;;;;;;5.93;3.93;;;-4.90;99.90;;;;;;2099980;28;20274;-70
2022/02/28 04:43:10;;;;;;;8.57;3.87;;;-4.90;99.90;;;;;;2107755;28;20259;-70
2022/02/28 04:44:10;;;;;;;7.53;3.90;;;-4.80;99.90;;;;;;2099294;28;20187;-69
2022/02/28 04:45:11;;;;;;;6.87;3.70;;;-4.80;99.90;;;;;;2090350;28;20188;-69
2022/02/28 04:46:12;;;;;;;6.47;3.90;;;-4.90;99.90;;;;;;2090860;28;20180;-70
2022/02/28 04:47:12;;;;;;;9.40;4.50;;;-5.00;99.90;;;;;;2099497;28;20753;-69
2022/02/28 04:48:13;;;;;;;6.93;3.60;;;-5.10;99.90;;;;;;2099823;28;20206;-70
2022/02/28 04:49:14;;;;;;;7.73;4.80;;;-5.10;99.90;;;;;;2099244;28;20222;-69
2022/02/28 04:50:14;;;;;;;8.03;5.30;;;-5.00;99.90;;;;;;2099076;28;20180;-70
2022/02/28 04:51:15;;;;;;;9.40;4.50;;;-5.00;99.90;;;;;;2099369;28;20670;-70
2022/02/28 04:52:16;;;;;;;7.07;4.63;;;-4.90;99.90;;;;;;2099195;28;20179;-69
2022/02/28 04:53:16;;;;;;;7.90;4.87;;;-4.90;99.90;;;;;;2099815;28;20908;-69
2022/02/28 04:54:17;;;;;;;12.67;8.37;;;-4.90;99.90;;;;;;2099790;28;20209;-70
2022/02/28 04:55:22;;;;;;;14.47;9.97;;;-5.00;99.90;;;;;;2098475;28;20180;-69
2022/02/28 04:56:22;;;;;;;11.77;7.00;;;-5.00;99.90;;;;;;2099234;28;20880;-70
2022/02/28 04:57:23;;;;;;;10.57;6.33;;;-5.00;99.90;;;;;;2099168;28;20218;-69
2022/02/28 04:58:24;;;;;;;8.33;5.17;;;-4.90;99.90;;;;;;2099193;28;20554;-69
2022/02/28 04:59:25;;;;;;;8.85;5.10;;;-5.00;99.90;;;;;;2099700;28;20171;-69
2022/02/28 05:00:26;;;;;;;11.00;5.73;;;-4.90;99.90;;;;;;2099793;28;20172;-69
2022/02/28 05:01:26;;;;;;;12.60;6.63;;;-4.90;99.90;;;;;;2099615;28;20199;-69
2022/02/28 05:02:27;;;;;;;12.70;6.07;;;-5.00;99.90;;;;;;2099201;28;20646;-69
2022/02/28 05:03:28;;;;;;;6.13;4.37;;;-5.00;99.90;;;;;;2099144;28;20172;-69
2022/02/28 05:04:28;;;;;;;7.07;4.97;;;-5.10;99.90;;;;;;2099156;28;20298;-69
2022/02/28 05:05:29;;;;;;;9.63;5.10;;;-5.10;99.90;;;;;;2099152;28;20614;-70
2022/02/28 05:06:30;;;;;;;8.47;5.07;;;-5.20;99.90;;;;;;2099744;28;20225;-69
2022/02/28 05:07:30;;;;;;;15.20;7.10;;;-5.30;99.90;;;;;;2099645;28;20194;-70
2022/02/28 05:08:31;;;;;;;10.67;5.13;;;-5.30;99.90;;;;;;2099879;28;20179;-69
2022/02/28 05:09:32;;;;;;;10.13;5.60;;;-5.30;99.90;;;;;;2099675;28;20226;-69
2022/02/28 05:10:33;;;;;;;11.90;6.23;;;-5.30;99.90;;;;;;2099798;28;20238;-69
2022/02/28 05:11:33;;;;;;;12.80;5.90;;;-5.20;99.90;;;;;;2099666;28;20189;-70
2022/02/28 05:12:34;;;;;;;9.40;5.73;;;-5.30;99.90;;;;;;2099363;28;20722;-69
2022/02/28 05:13:35;;;;;;;10.30;5.80;;;-5.30;99.90;;;;;;2099290;28;20183;-70
2022/02/28 05:14:35;;;;;;;9.57;6.13;;;-5.30;99.90;;;;;;2099977;28;20590;-69
2022/02/28 05:15:36;;;;;;;8.33;5.90;;;-5.20;99.90;;;;;;2099310;28;20586;-69
2022/02/28 05:16:36;;;;;;;9.40;5.93;;;-5.20;99.90;;;;;;2099963;28;20179;-69
2022/02/28 05:17:38;;;;;;;9.30;5.90;;;-5.20;99.90;;;;;;2099827;28;20203;-69